Missoula International Airport
KMSO : now visible

Airfield :











YOU CAN JOIN US ON...

 
LOGIN :

Register | Disclaimer

   EN    FR    IT 

 









Legend :    VFR   Marginal VFR   IFR   Intensive IFR   Very Intensive IFR
Visi :
Ceiling :
>= 8 km
>= 3000ft
5 to 8 km
1000 to 3000 ft
1500m to 5 km
500 to 1000 ft
800 to 1500m
200 to 500 ft
< 800m
< 200 ft
Symbols :   Thunderstorms  Fog  Heavy snow  Heavy precipitations  Wind > 20 kt






- Airport Elevation : 3206 ft
- IATA code : MSO


KMSO - Missoula International

CURRENT METAR :
  • 110153Z 01003KT 10SM CLR M02/M06 A3012 RMK AO2 SLP235 T10221056

EXPIRED METARs :
  • 110053Z 00000KT 10SM CLR M01/M04 A3013 RMK AO2 SLP236 T10061044
  • 102353Z 26004KT 10SM CLR M01/M05 A3014 RMK AO2 SLP240 T10061050 10044 21006 56011

TAF KMSO
Valid from the 11 at 00:00 until the 12 at 00:00 UTC


102320Z 1100/1124 30002KT P6SM SCT200
FM110700 VRB02KT P6SM OVC100
FM112000 VRB02KT P6SM VCSH OVC040



MET'MAP, your aeronautical weather chart ! - Copyright ORBIFLY December 2007 - Disclaimer

ORBIFLY MET'MAP TEAM :

Programming & Development : Alexandra Zaïnal
Concept & original design : Baudouin d'Aumeries
Assistance for programming : Marc-Olivier Méhu
Technical & hardware support : Manuel Goepfert

Contact : metmap@orbifly.com




SOURCES & CREDITS :

   NOAA       Earth
Advisory